createdAt,value
2019-04-21T00:01:08.777Z,32.60
2019-04-21T00:02:21.336Z,32.70
2019-04-21T00:03:27.488Z,32.80
2019-04-21T00:04:43.225Z,32.80
2019-04-21T00:05:58.168Z,32.90
2019-04-21T00:07:11.690Z,33.00
2019-04-21T00:08:27.530Z,33.00
2019-04-21T00:09:33.707Z,33.10
2019-04-21T00:10:40.598Z,33.20
2019-04-21T00:11:54.163Z,33.20
2019-04-21T00:12:52.015Z,33.10
2019-04-21T00:13:56.067Z,33.10
2019-04-21T00:15:02.212Z,33.10
2019-04-21T00:16:06.729Z,33.10
2019-04-21T00:17:15.369Z,33.00
2019-04-21T00:18:39.768Z,33.10
2019-04-21T00:19:43.004Z,33.30
2019-04-21T00:20:55.208Z,33.30
2019-04-21T00:22:09.938Z,33.40
2019-04-21T00:23:24.250Z,33.50
2019-04-21T00:24:32.359Z,33.60
2019-04-21T00:25:38.857Z,33.60
2019-04-21T00:26:55.670Z,33.50
2019-04-21T00:28:04.712Z,33.20
2019-04-21T00:29:22.565Z,33.60
2019-04-21T00:30:21.366Z,33.60
2019-04-21T00:31:28.498Z,33.60
2019-04-21T00:32:35.269Z,33.80
2019-04-21T00:33:34.321Z,33.70
2019-04-21T00:34:47.453Z,33.90
2019-04-21T00:35:57.726Z,33.90
2019-04-21T00:37:11.269Z,33.90
2019-04-21T00:38:24.952Z,33.90
2019-04-21T00:39:43.650Z,34.00
2019-04-21T00:40:50.429Z,34.00
2019-04-21T00:41:55.839Z,34.10
2019-04-21T00:42:59.910Z,34.10
2019-04-21T00:44:04.497Z,34.10
2019-04-21T00:45:16.553Z,34.10
2019-04-21T00:46:27.979Z,34.20
2019-04-21T00:47:45.820Z,34.10
2019-04-21T00:48:47.692Z,34.20
2019-04-21T00:50:02.259Z,34.20
2019-04-21T00:52:45.628Z,34.40
2019-04-21T00:53:53.426Z,34.40
2019-04-21T00:55:07.705Z,34.30
2019-04-21T00:56:08.964Z,34.40
2019-04-21T00:57:18.078Z,34.50
2019-04-21T00:58:35.959Z,34.60
2019-04-21T00:59:40.073Z,34.60
2019-04-21T01:00:46.359Z,34.60
2019-04-21T01:01:55.149Z,34.70
2019-04-21T01:03:08.399Z,35.50
2019-04-21T01:04:16.899Z,34.70
2019-04-21T01:05:22.522Z,34.80
2019-04-21T01:06:35.918Z,35.00
2019-04-21T01:07:41.629Z,35.00
2019-04-21T01:08:47.131Z,34.90
2019-04-21T01:09:54.570Z,35.10
2019-04-21T01:11:02.225Z,35.30
2019-04-21T01:12:19.350Z,35.40
2019-04-21T01:13:27.792Z,35.40
2019-04-21T01:14:45.525Z,35.50
2019-04-21T01:15:48.876Z,35.60
2019-04-21T01:16:58.209Z,35.70
2019-04-21T01:18:04.501Z,35.70
2019-04-21T01:19:12.090Z,35.80
2019-04-21T01:20:13.302Z,35.80
2019-04-21T01:21:14.009Z,35.90
2019-04-21T01:22:16.864Z,35.90
2019-04-21T01:23:25.477Z,36.00
2019-04-21T01:24:37.634Z,36.10
2019-04-21T01:25:55.454Z,36.20
2019-04-21T01:27:00.999Z,36.20
2019-04-21T01:28:23.266Z,36.20
2019-04-21T01:29:35.696Z,36.30
2019-04-21T01:30:39.919Z,36.60
2019-04-21T01:31:41.636Z,36.50
2019-04-21T01:33:04.194Z,36.50
2019-04-21T01:34:03.305Z,36.60
2019-04-21T01:35:15.084Z,36.50
2019-04-21T01:36:18.121Z,35.90
2019-04-21T01:37:40.910Z,36.50
2019-04-21T01:39:02.109Z,36.50
2019-04-21T01:39:58.491Z,36.50
2019-04-21T01:41:02.230Z,36.40
2019-04-21T01:42:09.417Z,36.50
2019-04-21T01:43:17.529Z,36.70
2019-04-21T01:44:39.110Z,36.70
2019-04-21T01:45:41.028Z,36.90
2019-04-21T01:46:40.737Z,36.90
2019-04-21T01:47:54.972Z,36.90
2019-04-21T01:48:58.084Z,36.80
2019-04-21T01:50:02.554Z,36.80
2019-04-21T01:51:22.238Z,36.90
2019-04-21T01:52:44.142Z,36.90
2019-04-21T01:54:04.005Z,37.00
2019-04-21T01:55:19.496Z,37.00
2019-04-21T01:56:40.568Z,36.90
2019-04-21T01:58:21.052Z,37.00
2019-04-21T01:59:30.618Z,37.00
2019-04-21T02:00:54.365Z,36.80
2019-04-21T02:01:52.417Z,37.60
2019-04-21T02:03:10.699Z,37.10
2019-04-21T02:04:14.060Z,37.20
2019-04-21T02:06:39.514Z,37.30
2019-04-21T02:07:38.954Z,37.30
2019-04-21T02:08:52.546Z,37.40
2019-04-21T02:10:05.034Z,37.50
2019-04-21T02:11:12.301Z,37.50
2019-04-21T02:12:19.531Z,37.50
2019-04-21T02:13:23.157Z,37.50
2019-04-21T02:14:40.891Z,37.60
2019-04-21T02:15:48.858Z,37.60
2019-04-21T02:16:55.203Z,37.80
2019-04-21T02:17:59.358Z,37.80
2019-04-21T02:19:08.316Z,37.80
2019-04-21T02:20:11.991Z,37.70
2019-04-21T02:21:21.814Z,37.70
2019-04-21T02:22:46.756Z,37.20
2019-04-21T02:23:53.833Z,37.80
2019-04-21T02:25:02.849Z,37.80
2019-04-21T02:26:12.687Z,37.80
2019-04-21T02:27:16.084Z,37.80
2019-04-21T02:28:33.560Z,37.90
2019-04-21T02:29:37.620Z,38.00
2019-04-21T02:30:55.261Z,38.00
2019-04-21T02:32:18.024Z,38.10
2019-04-21T02:33:18.673Z,38.10
2019-04-21T02:34:16.619Z,38.20
2019-04-21T02:36:52.932Z,38.30
2019-04-21T02:37:55.534Z,38.30
2019-04-21T02:40:22.338Z,38.40
2019-04-21T02:41:13.155Z,38.50
2019-04-21T02:42:34.362Z,38.60
2019-04-21T02:44:43.284Z,38.70
2019-04-21T02:46:02.137Z,38.70
2019-04-21T02:47:19.122Z,38.70
2019-04-21T02:48:08.795Z,38.70
2019-04-21T02:49:22.955Z,38.60
2019-04-21T02:50:28.737Z,38.60
2019-04-21T02:52:43.877Z,38.70
2019-04-21T02:55:03.320Z,38.70
2019-04-21T02:57:15.840Z,38.90
2019-04-21T03:01:46.362Z,38.90
2019-04-21T03:04:34.887Z,38.90
2019-04-21T03:05:51.149Z,38.90
2019-04-21T03:08:14.777Z,39.00
2019-04-21T03:09:24.109Z,39.00
2019-04-21T03:11:45.544Z,39.20
2019-04-21T03:12:45.870Z,39.40
2019-04-21T03:14:05.947Z,39.30
2019-04-21T03:16:23.341Z,39.30
2019-04-21T03:17:35.839Z,39.30
2019-04-21T03:18:45.878Z,39.20
2019-04-21T03:21:00.624Z,39.20
2019-04-21T03:22:13.000Z,39.20
2019-04-21T03:23:20.975Z,39.30
2019-04-21T03:24:24.446Z,39.40
2019-04-21T03:26:48.436Z,39.70
2019-04-21T03:27:58.581Z,39.70
2019-04-21T03:30:19.952Z,39.80
2019-04-21T03:31:59.735Z,39.80
2019-04-21T03:35:19.314Z,40.00
2019-04-21T03:38:14.823Z,40.00
2019-04-21T03:39:18.345Z,40.00
2019-04-21T03:40:18.836Z,40.20
2019-04-21T03:41:39.688Z,40.20
2019-04-21T03:45:08.490Z,40.20
2019-04-21T03:46:16.390Z,40.30
2019-04-21T03:49:47.558Z,40.30
2019-04-21T03:51:04.298Z,40.30
2019-04-21T03:52:09.058Z,40.30
2019-04-21T03:53:09.661Z,40.40
2019-04-21T03:54:16.085Z,40.40
2019-04-21T03:56:59.239Z,40.40
2019-04-21T03:58:05.120Z,40.20
2019-04-21T04:00:31.819Z,40.40
2019-04-21T04:01:26.002Z,40.40
2019-04-21T04:03:23.543Z,40.40
2019-04-21T04:04:31.937Z,40.40
2019-04-21T04:07:25.236Z,40.30
2019-04-21T04:10:50.372Z,40.40
2019-04-21T04:13:05.457Z,40.60
2019-04-21T04:15:22.850Z,40.70
2019-04-21T04:16:28.763Z,40.70
2019-04-21T04:17:34.440Z,40.70
2019-04-21T04:19:56.502Z,40.70
2019-04-21T04:22:15.107Z,40.80
2019-04-21T04:23:28.685Z,40.90
2019-04-21T04:25:35.475Z,41.00
2019-04-21T04:26:50.998Z,41.40
2019-04-21T04:29:24.527Z,40.70
2019-04-21T04:30:22.410Z,40.70
2019-04-21T04:31:32.061Z,40.70
2019-04-21T04:32:36.458Z,40.60
2019-04-21T04:33:50.209Z,40.70
2019-04-21T04:34:57.227Z,40.70
2019-04-21T04:36:13.061Z,40.80
2019-04-21T04:38:24.160Z,40.80
2019-04-21T04:40:10.914Z,40.80
2019-04-21T04:43:40.940Z,40.70
2019-04-21T04:45:53.621Z,41.00
2019-04-21T04:47:15.586Z,41.10
2019-04-21T04:48:11.175Z,41.10
2019-04-21T04:49:36.411Z,41.20
2019-04-21T04:50:45.470Z,41.20
2019-04-21T04:52:09.638Z,41.30
2019-04-21T04:52:48.584Z,41.40
2019-04-21T04:54:26.633Z,41.40
2019-04-21T04:55:08.861Z,41.60
2019-04-21T04:56:18.175Z,41.60
2019-04-21T04:59:11.615Z,41.70
2019-04-21T04:59:49.496Z,41.60
2019-04-21T05:02:15.083Z,41.70
2019-04-21T05:03:18.461Z,41.70
2019-04-21T05:04:23.831Z,41.80
2019-04-21T05:05:30.070Z,42.00
2019-04-21T05:07:50.468Z,42.00
2019-04-21T05:09:59.405Z,42.10
2019-04-21T05:11:26.108Z,42.20
2019-04-21T05:12:16.329Z,42.30
2019-04-21T05:13:35.273Z,41.80
2019-04-21T05:14:39.279Z,42.50
2019-04-21T05:15:50.333Z,42.60
2019-04-21T05:17:19.555Z,43.00
2019-04-21T05:18:08.697Z,42.60
2019-04-21T05:19:16.131Z,42.60
2019-04-21T05:20:29.852Z,42.70
2019-04-21T05:21:34.217Z,42.70
2019-04-21T05:22:35.466Z,42.70
2019-04-21T05:23:44.168Z,43.00
2019-04-21T05:24:51.051Z,43.20
2019-04-21T05:25:53.394Z,43.50
2019-04-21T05:27:08.666Z,43.40
2019-04-21T05:28:15.135Z,43.50
2019-04-21T05:29:36.288Z,43.50
2019-04-21T05:30:57.218Z,43.50
2019-04-21T05:32:13.387Z,43.10
2019-04-21T05:33:34.541Z,42.90
2019-04-21T05:34:41.778Z,42.80
2019-04-21T05:36:10.871Z,42.80
2019-04-21T05:37:27.219Z,43.00
2019-04-21T05:38:31.584Z,43.10
2019-04-21T05:39:57.952Z,43.40
2019-04-21T05:41:00.152Z,43.40
2019-04-21T05:42:03.940Z,43.50
2019-04-21T05:43:28.085Z,43.80
2019-04-21T05:44:43.098Z,44.40
2019-04-21T05:45:47.460Z,43.90
2019-04-21T05:47:07.892Z,44.00
2019-04-21T05:48:17.882Z,44.40
2019-04-21T05:49:25.292Z,44.60
2019-04-21T05:50:28.006Z,44.70
2019-04-21T05:51:57.044Z,44.80
2019-04-21T05:53:08.480Z,44.90
2019-04-21T05:54:23.040Z,45.10
2019-04-21T05:56:35.433Z,46.30
2019-04-21T05:57:46.305Z,46.50
2019-04-21T05:58:58.090Z,46.50
2019-04-21T06:00:01.191Z,46.80
2019-04-21T06:01:31.514Z,46.90
2019-04-21T06:02:38.478Z,47.00
2019-04-21T06:03:41.023Z,47.00
2019-04-21T06:05:10.429Z,46.90
2019-04-21T06:07:07.527Z,46.80
2019-04-21T06:08:12.916Z,46.90
2019-04-21T06:09:21.309Z,46.80
2019-04-21T06:10:38.363Z,46.70
2019-04-21T06:11:36.024Z,46.50
2019-04-21T06:12:52.219Z,46.40
2019-04-21T06:14:01.535Z,46.30
2019-04-21T06:15:10.451Z,46.10
2019-04-21T06:16:17.812Z,46.00
2019-04-21T06:17:31.562Z,45.80
2019-04-21T06:18:44.922Z,45.70
2019-04-21T06:20:54.678Z,45.50
2019-04-21T06:22:01.687Z,45.40
2019-04-21T06:23:13.559Z,45.30
2019-04-21T06:24:15.711Z,45.20
2019-04-21T06:25:54.608Z,45.00
2019-04-21T06:27:49.258Z,44.60
2019-04-21T06:29:13.352Z,44.40
2019-04-21T06:30:03.976Z,44.20
2019-04-21T06:31:30.269Z,44.30
2019-04-21T06:33:35.642Z,44.30
2019-04-21T06:35:02.513Z,44.30
2019-04-21T06:37:43.218Z,43.90
2019-04-21T06:39:11.986Z,43.90
2019-04-21T06:41:13.424Z,43.70
2019-04-21T06:42:14.993Z,43.60
2019-04-21T06:44:43.485Z,44.60
2019-04-21T06:45:48.852Z,44.60
2019-04-21T06:47:02.639Z,44.60
2019-04-21T06:48:04.657Z,44.60
2019-04-21T06:49:06.809Z,44.70
2019-04-21T06:50:24.220Z,44.70
2019-04-21T06:53:56.037Z,44.50
2019-04-21T06:54:56.085Z,44.20
2019-04-21T06:56:08.196Z,44.60
2019-04-21T06:57:18.218Z,43.90
2019-04-21T06:58:18.374Z,43.90
2019-04-21T06:59:30.090Z,44.00
2019-04-21T07:00:37.134Z,44.10
2019-04-21T07:01:50.435Z,44.00
2019-04-21T07:03:11.500Z,43.70
2019-04-21T07:05:22.828Z,43.30
2019-04-21T07:06:30.546Z,43.20
2019-04-21T07:07:40.554Z,43.10
2019-04-21T07:08:54.937Z,42.70
2019-04-21T07:09:57.189Z,42.80
2019-04-21T07:11:02.359Z,42.90
2019-04-21T07:12:07.547Z,43.20
2019-04-21T07:13:14.060Z,43.20
2019-04-21T07:15:38.764Z,42.00
2019-04-21T07:16:51.011Z,42.10
2019-04-21T07:17:59.458Z,42.10
2019-04-21T07:19:13.225Z,42.80
2019-04-21T07:20:15.889Z,43.30
2019-04-21T07:21:25.211Z,42.70
2019-04-21T07:22:40.232Z,41.80
2019-04-21T07:23:45.865Z,42.10
2019-04-21T07:24:53.602Z,42.20
2019-04-21T07:26:01.369Z,41.50
2019-04-21T07:27:13.412Z,40.70
2019-04-21T07:28:22.028Z,40.10
2019-04-21T07:29:32.549Z,40.70
2019-04-21T07:30:38.042Z,40.40
2019-04-21T07:31:54.133Z,39.70
2019-04-21T07:33:07.294Z,40.70
2019-04-21T07:34:07.853Z,40.90
2019-04-21T07:35:08.315Z,40.80
2019-04-21T07:36:30.851Z,40.80
2019-04-21T07:37:30.507Z,41.10
2019-04-21T07:38:39.867Z,40.60
2019-04-21T07:39:47.680Z,40.20
2019-04-21T07:40:54.714Z,39.70
2019-04-21T07:42:06.871Z,39.60
2019-04-21T07:43:15.228Z,39.90
2019-04-21T07:44:20.343Z,39.40
2019-04-21T07:45:27.619Z,39.80
2019-04-21T07:46:30.045Z,40.00
2019-04-21T07:47:53.461Z,40.00
2019-04-21T07:49:06.616Z,39.60
2019-04-21T07:50:27.364Z,38.70
2019-04-21T07:51:52.165Z,38.90
2019-04-21T07:53:09.362Z,39.30
2019-04-21T07:54:18.702Z,39.70
2019-04-21T07:56:19.947Z,39.70
2019-04-21T07:57:36.818Z,39.20
2019-04-21T07:58:53.427Z,38.10
2019-04-21T08:00:16.606Z,38.00
2019-04-21T08:01:11.696Z,38.80
2019-04-21T08:02:18.800Z,39.70
2019-04-21T08:03:30.395Z,41.30
2019-04-21T08:05:45.763Z,38.50
2019-04-21T08:06:52.427Z,39.60
2019-04-21T08:07:55.803Z,39.50
2019-04-21T08:09:08.921Z,38.30
2019-04-21T08:10:15.767Z,38.40
2019-04-21T08:11:27.108Z,39.30
2019-04-21T08:12:30.525Z,39.30
2019-04-21T08:13:48.524Z,39.70
2019-04-21T08:15:01.489Z,40.10
2019-04-21T08:16:04.675Z,39.60
2019-04-21T08:17:16.232Z,38.90
2019-04-21T08:18:28.727Z,38.50
2019-04-21T08:19:32.197Z,39.10
2019-04-21T08:20:44.158Z,38.70
2019-04-21T08:21:59.862Z,38.50
2019-04-21T08:23:02.541Z,37.80
2019-04-21T08:24:13.401Z,37.90
2019-04-21T08:25:14.940Z,37.40
2019-04-21T08:26:33.782Z,38.00
2019-04-21T08:27:40.405Z,38.80
2019-04-21T08:28:45.546Z,38.40
2019-04-21T08:29:58.199Z,38.00
2019-04-21T08:31:01.820Z,37.80
2019-04-21T08:32:21.457Z,37.50
2019-04-21T08:34:34.795Z,36.60
2019-04-21T08:36:14.444Z,35.30
2019-04-21T08:36:44.734Z,36.00
2019-04-21T08:37:59.108Z,34.90
2019-04-21T08:39:07.244Z,35.50
2019-04-21T08:40:24.932Z,35.80
2019-04-21T08:41:23.084Z,35.80
2019-04-21T08:42:35.158Z,35.90
2019-04-21T08:44:54.188Z,36.00
2019-04-21T08:46:01.557Z,34.60
2019-04-21T08:47:12.604Z,34.60
2019-04-21T08:48:18.269Z,34.00
2019-04-21T08:49:28.144Z,32.10
2019-04-21T08:50:41.459Z,31.90
2019-04-21T08:51:50.409Z,32.90
2019-04-21T08:52:58.372Z,33.10
2019-04-21T08:54:09.049Z,33.00
2019-04-21T08:55:32.049Z,33.00
2019-04-21T08:56:54.683Z,34.00
2019-04-21T08:58:25.701Z,33.10
2019-04-21T08:59:45.287Z,32.20
2019-04-21T09:01:06.641Z,32.40
2019-04-21T09:02:14.472Z,32.00
2019-04-21T09:03:44.686Z,31.80
2019-04-21T09:04:47.307Z,31.00
2019-04-21T09:05:57.127Z,31.10
2019-04-21T09:07:30.389Z,31.20
2019-04-21T09:08:19.506Z,31.20
2019-04-21T09:09:29.407Z,31.20
2019-04-21T09:10:42.244Z,30.50
2019-04-21T09:11:47.295Z,31.20
2019-04-21T09:12:53.472Z,31.50
2019-04-21T09:14:07.564Z,31.20
2019-04-21T09:15:13.892Z,30.20
2019-04-21T09:16:20.808Z,31.30
2019-04-21T09:17:25.096Z,30.90
2019-04-21T09:18:32.442Z,30.40
2019-04-21T09:19:57.928Z,30.90
2019-04-21T09:20:58.463Z,31.00
2019-04-21T09:22:05.607Z,30.50
2019-04-21T09:23:18.106Z,30.80
2019-04-21T09:24:42.910Z,31.00
2019-04-21T09:25:44.687Z,31.10
2019-04-21T09:26:40.647Z,30.50
2019-04-21T09:27:46.759Z,29.90
2019-04-21T09:28:52.100Z,30.60
2019-04-21T09:29:57.712Z,31.20
2019-04-21T09:31:04.828Z,30.40
2019-04-21T09:32:16.669Z,30.40
2019-04-21T09:33:20.846Z,30.00
2019-04-21T09:34:35.936Z,30.80
2019-04-21T09:35:40.679Z,30.00
2019-04-21T09:36:51.201Z,29.90
2019-04-21T09:38:02.175Z,29.60
2019-04-21T09:39:13.002Z,30.00
2019-04-21T09:40:16.906Z,29.90
2019-04-21T09:41:25.953Z,29.90
2019-04-21T09:42:40.984Z,29.70
2019-04-21T09:43:47.389Z,29.70
2019-04-21T09:44:55.670Z,29.70
2019-04-21T09:46:01.828Z,29.40
2019-04-21T09:47:11.037Z,29.40
2019-04-21T09:48:22.166Z,29.40
2019-04-21T09:49:31.716Z,29.70
2019-04-21T09:50:38.290Z,28.00
2019-04-21T09:51:46.128Z,29.40
2019-04-21T09:52:58.703Z,28.40
2019-04-21T09:54:08.749Z,28.80
2019-04-21T09:55:17.510Z,28.40
2019-04-21T09:56:31.540Z,28.10
2019-04-21T09:57:38.195Z,27.60
2019-04-21T09:58:44.608Z,28.00
2019-04-21T09:59:57.085Z,28.40
2019-04-21T10:01:05.180Z,28.10
2019-04-21T10:02:11.628Z,27.20
2019-04-21T10:03:16.252Z,27.50
2019-04-21T10:04:23.677Z,27.10
2019-04-21T10:05:31.686Z,27.80
2019-04-21T10:06:39.545Z,27.60
2019-04-21T10:07:46.810Z,28.50
2019-04-21T10:09:00.955Z,27.70
2019-04-21T10:10:03.821Z,27.80
2019-04-21T10:11:14.150Z,28.60
2019-04-21T10:12:21.508Z,28.60
2019-04-21T10:13:29.588Z,29.00
2019-04-21T10:14:36.843Z,27.60
2019-04-21T10:15:46.304Z,28.60
2019-04-21T10:17:13.091Z,28.10
2019-04-21T10:18:21.687Z,28.10
2019-04-21T10:19:29.768Z,28.00
2019-04-21T10:20:38.474Z,28.50
2019-04-21T10:21:46.591Z,28.70
2019-04-21T10:22:55.324Z,27.10
2019-04-21T10:24:03.803Z,27.50
2019-04-21T10:25:12.989Z,26.80
2019-04-21T10:26:20.231Z,26.80
2019-04-21T10:27:27.482Z,27.60
2019-04-21T10:28:35.141Z,28.50
2019-04-21T10:29:44.564Z,26.60
2019-04-21T10:30:51.272Z,27.60
2019-04-21T10:31:59.595Z,27.40
2019-04-21T10:33:08.400Z,27.40
2019-04-21T10:34:17.015Z,27.80
2019-04-21T10:35:26.179Z,27.10
2019-04-21T10:36:33.594Z,26.40
2019-04-21T10:37:49.829Z,26.40
2019-04-21T10:38:52.255Z,26.80
2019-04-21T10:40:00.008Z,27.70
2019-04-21T10:41:07.886Z,27.50
2019-04-21T10:42:15.538Z,26.10
2019-04-21T10:43:24.353Z,25.70
2019-04-21T10:44:31.714Z,26.30
2019-04-21T10:45:39.209Z,25.40
2019-04-21T10:46:50.293Z,26.80
2019-04-21T10:47:58.696Z,26.30
2019-04-21T10:49:06.456Z,24.80
2019-04-21T10:50:16.163Z,25.00
2019-04-21T10:51:23.577Z,24.70
2019-04-21T10:52:50.949Z,25.10
2019-04-21T10:53:59.770Z,24.40
2019-04-21T10:55:26.345Z,24.80
2019-04-21T10:56:25.116Z,25.60
2019-04-21T10:57:28.439Z,25.90
2019-04-21T10:58:38.361Z,26.00
2019-04-21T10:59:47.946Z,25.50
2019-04-21T11:01:02.054Z,25.60
2019-04-21T11:02:14.744Z,25.40
2019-04-21T11:03:33.256Z,26.00
2019-04-21T11:04:42.269Z,24.80
2019-04-21T11:05:50.747Z,24.50
2019-04-21T11:07:06.788Z,24.30
2019-04-21T11:08:20.457Z,24.20
2019-04-21T11:09:16.260Z,22.70
2019-04-21T11:10:23.490Z,23.30
2019-04-21T11:11:32.004Z,23.00
2019-04-21T11:12:40.975Z,24.60
2019-04-21T11:13:48.525Z,24.10
2019-04-21T11:14:56.898Z,22.50
2019-04-21T11:16:05.483Z,22.40
2019-04-21T11:17:14.169Z,22.00
2019-04-21T11:18:21.947Z,22.00
2019-04-21T11:19:30.722Z,21.90
2019-04-21T11:20:38.090Z,21.80
2019-04-21T11:21:45.316Z,21.70
2019-04-21T11:22:53.646Z,21.60
2019-04-21T11:24:01.898Z,21.90
2019-04-21T11:25:09.516Z,22.50
2019-04-21T11:26:18.138Z,22.20
2019-04-21T11:27:26.729Z,23.30
2019-04-21T11:28:34.655Z,23.00
2019-04-21T11:29:43.216Z,23.10
2019-04-21T11:30:51.021Z,22.50
2019-04-21T11:31:58.971Z,22.50
2019-04-21T11:33:07.010Z,23.30
2019-04-21T11:34:15.477Z,22.20
2019-04-21T11:35:23.387Z,22.60
2019-04-21T11:36:31.362Z,23.00
2019-04-21T11:37:39.839Z,22.80
2019-04-21T11:39:08.646Z,22.60
2019-04-21T11:40:09.166Z,22.70
2019-04-21T11:41:13.801Z,22.50
2019-04-21T11:42:30.128Z,22.10
2019-04-21T11:43:37.413Z,22.20
2019-04-21T11:44:45.045Z,21.50
2019-04-21T11:45:52.646Z,21.60
2019-04-21T11:47:00.522Z,23.10
2019-04-21T11:48:28.434Z,23.00
2019-04-21T11:49:36.985Z,23.00
2019-04-21T11:50:44.296Z,22.90
2019-04-21T11:51:51.535Z,23.00
2019-04-21T11:52:59.035Z,23.20
2019-04-21T11:54:06.860Z,23.00
2019-04-21T11:55:14.332Z,20.80
2019-04-21T11:56:22.980Z,21.10
2019-04-21T11:57:35.040Z,21.90
2019-04-21T11:58:41.534Z,22.30
2019-04-21T11:59:48.942Z,21.20
2019-04-21T12:01:00.094Z,20.80
2019-04-21T12:02:07.924Z,21.30
2019-04-21T12:03:16.920Z,21.60
2019-04-21T12:04:25.202Z,21.30
2019-04-21T12:05:33.057Z,21.90
2019-04-21T12:06:44.453Z,22.40
2019-04-21T12:07:49.380Z,21.60
2019-04-21T12:09:00.756Z,21.00
2019-04-21T12:10:05.960Z,22.00
2019-04-21T12:11:13.717Z,22.10
2019-04-21T12:12:21.365Z,22.80
2019-04-21T12:13:29.924Z,22.80
2019-04-21T12:14:37.356Z,22.80
2019-04-21T12:15:45.146Z,23.00
2019-04-21T12:16:53.006Z,23.00
2019-04-21T12:18:01.690Z,22.40
2019-04-21T12:19:09.246Z,21.50
2019-04-21T12:20:16.803Z,21.30
2019-04-21T12:21:25.260Z,21.10
2019-04-21T12:22:34.037Z,20.70
2019-04-21T12:23:42.731Z,20.20
2019-04-21T12:24:51.289Z,20.30
2019-04-21T12:25:59.091Z,19.60
2019-04-21T12:27:07.797Z,18.90
2019-04-21T12:28:15.944Z,18.80
2019-04-21T12:29:24.843Z,19.60
2019-04-21T12:30:33.288Z,20.50
2019-04-21T12:31:59.429Z,21.00
2019-04-21T12:33:16.251Z,20.40
2019-04-21T12:34:23.792Z,19.50
2019-04-21T12:35:31.032Z,19.50
2019-04-21T12:36:38.287Z,19.50
2019-04-21T12:37:48.918Z,19.20
2019-04-21T12:39:00.074Z,19.50
2019-04-21T12:40:06.455Z,19.60
2019-04-21T12:41:15.321Z,19.40
2019-04-21T12:42:22.864Z,19.80
2019-04-21T12:43:31.234Z,19.70
2019-04-21T12:44:39.138Z,19.80
2019-04-21T12:45:46.550Z,20.10
2019-04-21T12:46:54.085Z,20.10
2019-04-21T12:48:02.127Z,20.90
2019-04-21T12:49:09.859Z,21.20
2019-04-21T12:50:17.915Z,20.50
2019-04-21T12:51:25.959Z,20.70
2019-04-21T12:52:33.680Z,19.40
2019-04-21T12:53:41.600Z,19.50
2019-04-21T12:54:48.934Z,20.40
2019-04-21T12:55:56.156Z,20.60
2019-04-21T12:57:03.531Z,20.50
2019-04-21T12:58:11.156Z,20.70
2019-04-21T12:59:19.087Z,21.00
2019-04-21T13:00:27.009Z,20.80
2019-04-21T13:01:34.991Z,21.20
2019-04-21T13:02:43.463Z,21.30
2019-04-21T13:03:52.042Z,20.80
2019-04-21T13:04:59.688Z,20.50
2019-04-21T13:06:07.585Z,19.90
2019-04-21T13:07:15.404Z,19.50
2019-04-21T13:08:25.011Z,19.30
2019-04-21T13:09:33.825Z,19.30
2019-04-21T13:10:42.273Z,19.10
2019-04-21T13:11:50.896Z,19.50
2019-04-21T13:12:59.757Z,19.90
2019-04-21T13:14:08.233Z,19.70
2019-04-21T13:15:18.023Z,20.30
2019-04-21T13:16:25.492Z,20.30
2019-04-21T13:17:33.163Z,20.10
2019-04-21T13:18:41.705Z,19.20
2019-04-21T13:19:49.536Z,19.70
2019-04-21T13:20:59.301Z,20.40
2019-04-21T13:22:06.034Z,19.70
2019-04-21T13:23:13.868Z,19.40
2019-04-21T13:24:22.008Z,19.40
2019-04-21T13:25:30.320Z,19.90
2019-04-21T13:26:45.621Z,19.80
2019-04-21T13:27:47.239Z,19.50
2019-04-21T13:28:54.548Z,19.60
2019-04-21T13:30:02.206Z,19.80
2019-04-21T13:31:09.942Z,19.40
2019-04-21T13:32:18.175Z,19.90
2019-04-21T13:33:27.145Z,19.60
2019-04-21T13:34:35.812Z,19.50
2019-04-21T13:35:44.501Z,19.40
2019-04-21T13:36:52.027Z,19.10
2019-04-21T13:38:00.540Z,18.70
2019-04-21T13:41:12.495Z,19.40
2019-04-21T13:42:16.138Z,20.30
2019-04-21T13:43:15.218Z,19.50
2019-04-21T13:44:23.439Z,19.00
2019-04-21T13:45:32.193Z,19.00
2019-04-21T13:46:40.698Z,18.90
2019-04-21T13:47:48.522Z,19.60
2019-04-21T13:48:55.863Z,19.60
2019-04-21T13:50:05.302Z,19.50
2019-04-21T13:51:13.226Z,19.20
2019-04-21T13:52:20.659Z,19.40
2019-04-21T13:53:28.536Z,19.30
2019-04-21T13:54:35.923Z,19.40
2019-04-21T13:55:44.547Z,18.80
2019-04-21T13:56:54.269Z,18.70
2019-04-21T13:58:02.097Z,19.30
2019-04-21T13:59:10.556Z,19.20
2019-04-21T14:00:21.610Z,19.60
2019-04-21T14:01:29.727Z,18.80
2019-04-21T14:02:38.561Z,18.20
2019-04-21T14:03:47.230Z,18.50
2019-04-21T14:04:55.766Z,18.60
2019-04-21T14:06:04.409Z,18.70
2019-04-21T14:07:32.182Z,18.70
2019-04-21T14:08:41.659Z,17.60
2019-04-21T14:09:56.109Z,18.10
2019-04-21T14:10:57.579Z,18.30
2019-04-21T14:12:05.416Z,18.60
2019-04-21T14:13:14.214Z,18.90
2019-04-21T14:14:23.913Z,19.00
2019-04-21T14:15:32.408Z,19.30
2019-04-21T14:16:40.151Z,19.20
2019-04-21T14:17:48.922Z,19.20
2019-04-21T14:18:57.200Z,19.10
2019-04-21T14:20:05.215Z,18.90
2019-04-21T14:21:13.331Z,18.80
2019-04-21T14:22:22.224Z,19.00
2019-04-21T14:23:36.265Z,18.30
2019-04-21T14:24:39.291Z,18.00
2019-04-21T14:25:47.888Z,18.30
2019-04-21T14:26:56.273Z,18.30
2019-04-21T14:28:04.026Z,17.90
2019-04-21T14:29:11.458Z,18.20
2019-04-21T14:30:20.591Z,18.30
2019-04-21T14:31:28.402Z,18.40
2019-04-21T14:32:36.032Z,18.10
2019-04-21T14:33:43.737Z,17.80
2019-04-21T14:34:53.829Z,17.80
2019-04-21T14:36:00.991Z,18.20
2019-04-21T14:37:08.806Z,18.70
2019-04-21T14:38:16.555Z,18.70
2019-04-21T14:39:23.805Z,18.30
2019-04-21T14:40:33.359Z,18.00
2019-04-21T14:41:40.408Z,18.50
2019-04-21T14:42:47.863Z,19.00
2019-04-21T14:43:55.236Z,19.00
2019-04-21T14:45:03.225Z,19.10
2019-04-21T14:46:21.530Z,19.40
2019-04-21T14:47:42.139Z,19.90
2019-04-21T14:49:06.998Z,19.50
2019-04-21T14:50:44.314Z,19.30
2019-04-21T14:52:05.454Z,19.30
2019-04-21T14:53:23.391Z,19.50
2019-04-21T14:54:56.415Z,18.80
2019-04-21T14:56:03.791Z,18.30
2019-04-21T14:57:11.440Z,18.20
2019-04-21T14:58:19.105Z,18.50
2019-04-21T14:59:26.984Z,18.10
2019-04-21T15:01:06.287Z,18.60
2019-04-21T15:02:14.075Z,19.10
2019-04-21T15:03:21.703Z,19.00
2019-04-21T15:04:28.986Z,18.60
2019-04-21T15:05:37.542Z,18.40
2019-04-21T15:06:45.557Z,18.30
2019-04-21T15:07:53.231Z,18.40
2019-04-21T15:09:00.886Z,18.40
2019-04-21T15:10:17.958Z,18.10
2019-04-21T15:11:20.060Z,18.30
2019-04-21T15:12:27.900Z,18.50
2019-04-21T15:13:35.485Z,18.40
2019-04-21T15:14:43.910Z,18.50
2019-04-21T15:15:52.173Z,18.50
2019-04-21T15:17:00.835Z,18.80
2019-04-21T15:18:08.527Z,18.70
2019-04-21T15:19:16.879Z,18.90
2019-04-21T15:20:25.279Z,18.90
2019-04-21T15:21:33.487Z,19.00
2019-04-21T15:22:41.759Z,18.90
2019-04-21T15:23:50.604Z,18.50
2019-04-21T15:24:58.443Z,18.00
2019-04-21T15:26:06.126Z,18.00
2019-04-21T15:27:14.447Z,17.60
2019-04-21T15:28:22.031Z,18.30
2019-04-21T15:29:29.245Z,18.70
2019-04-21T15:30:36.614Z,18.50
2019-04-21T15:31:44.803Z,18.70
2019-04-21T15:32:52.777Z,18.30
2019-04-21T15:34:01.197Z,18.20
2019-04-21T15:35:09.238Z,17.80
2019-04-21T15:36:16.767Z,17.80
2019-04-21T15:37:26.021Z,17.40
2019-04-21T15:38:33.997Z,17.70
2019-04-21T15:39:42.421Z,17.80
2019-04-21T15:40:55.147Z,18.00
2019-04-21T15:41:58.939Z,17.50
2019-04-21T15:43:06.550Z,17.90
2019-04-21T15:44:14.624Z,17.90
2019-04-21T15:45:22.051Z,18.20
2019-04-21T15:46:32.165Z,18.80
2019-04-21T15:47:38.198Z,19.00
2019-04-21T15:48:46.772Z,18.50
2019-04-21T15:50:04.714Z,18.60
2019-04-21T15:51:08.459Z,18.40
2019-04-21T15:52:15.881Z,18.40
2019-04-21T15:53:23.839Z,18.70
2019-04-21T15:54:32.281Z,19.00
2019-04-21T15:55:54.989Z,18.70
2019-04-21T15:57:14.086Z,19.10
2019-04-21T15:58:40.819Z,18.80
2019-04-21T15:59:58.299Z,20.00
2019-04-21T16:01:16.404Z,19.60
2019-04-21T16:02:42.396Z,18.80
2019-04-21T16:03:49.787Z,18.70
2019-04-21T16:04:57.017Z,18.30
2019-04-21T16:06:05.629Z,19.00
2019-04-21T16:07:14.036Z,19.40
2019-04-21T16:08:21.993Z,19.10
2019-04-21T16:09:30.805Z,18.50
2019-04-21T16:10:45.215Z,18.40
2019-04-21T16:11:47.227Z,18.00
2019-04-21T16:12:55.896Z,18.50